sensor_id;sensor_type;location;lat;lon;timestamp;temperature;humidity
25556;DHT22;13447;57.174;-2.112;2022-07-17T00:01:37;17.50;99.90
25556;DHT22;13447;57.174;-2.112;2022-07-17T00:04:04;17.50;99.90
25556;DHT22;13447;57.174;-2.112;2022-07-17T00:06:31;17.50;99.90
25556;DHT22;13447;57.174;-2.112;2022-07-17T00:08:58;17.50;99.90
25556;DHT22;13447;57.174;-2.112;2022-07-17T00:11:25;17.60;99.90
25556;DHT22;13447;57.174;-2.112;2022-07-17T00:13:52;17.50;99.90
25556;DHT22;13447;57.174;-2.112;2022-07-17T00:16:20;17.50;99.90
25556;DHT22;13447;57.174;-2.112;2022-07-17T00:18:48;17.40;99.90
25556;DHT22;13447;57.174;-2.112;2022-07-17T00:21:15;17.40;99.90
25556;DHT22;13447;57.174;-2.112;2022-07-17T00:23:43;17.30;99.90
25556;DHT22;13447;57.174;-2.112;2022-07-17T00:26:10;17.30;99.90
25556;DHT22;13447;57.174;-2.112;2022-07-17T00:28:37;17.30;99.90
25556;DHT22;13447;57.174;-2.112;2022-07-17T00:31:04;17.30;99.90
25556;DHT22;13447;57.174;-2.112;2022-07-17T00:33:31;17.30;99.90
25556;DHT22;13447;57.174;-2.112;2022-07-17T00:35:59;17.30;99.90
25556;DHT22;13447;57.174;-2.112;2022-07-17T00:38:26;17.30;99.90
25556;DHT22;13447;57.174;-2.112;2022-07-17T00:40:57;17.30;99.90
25556;DHT22;13447;57.174;-2.112;2022-07-17T00:43:25;17.40;99.90
25556;DHT22;13447;57.174;-2.112;2022-07-17T00:46:01;17.30;99.90
25556;DHT22;13447;57.174;-2.112;2022-07-17T00:48:30;17.30;99.90
25556;DHT22;13447;57.174;-2.112;2022-07-17T00:50:58;17.40;99.90
25556;DHT22;13447;57.174;-2.112;2022-07-17T00:53:28;17.30;99.90
25556;DHT22;13447;57.174;-2.112;2022-07-17T00:55:55;17.30;99.90
25556;DHT22;13447;57.174;-2.112;2022-07-17T00:58:24;17.30;99.90
25556;DHT22;13447;57.174;-2.112;2022-07-17T01:00:54;17.30;99.90
25556;DHT22;13447;57.174;-2.112;2022-07-17T01:03:25;17.40;99.90
25556;DHT22;13447;57.174;-2.112;2022-07-17T01:05:52;17.30;99.90
25556;DHT22;13447;57.174;-2.112;2022-07-17T01:08:20;17.40;99.90
25556;DHT22;13447;57.174;-2.112;2022-07-17T01:10:47;17.40;99.90
25556;DHT22;13447;57.174;-2.112;2022-07-17T01:13:14;17.50;99.90
25556;DHT22;13447;57.174;-2.112;2022-07-17T01:15:41;17.50;99.90
25556;DHT22;13447;57.174;-2.112;2022-07-17T01:18:11;17.50;99.90
25556;DHT22;13447;57.174;-2.112;2022-07-17T01:20:41;17.40;99.90
25556;DHT22;13447;57.174;-2.112;2022-07-17T01:23:09;17.40;99.90
25556;DHT22;13447;57.174;-2.112;2022-07-17T01:25:36;17.40;99.90
25556;DHT22;13447;57.174;-2.112;2022-07-17T01:28:03;17.40;99.90
25556;DHT22;13447;57.174;-2.112;2022-07-17T01:30:32;17.30;99.90
25556;DHT22;13447;57.174;-2.112;2022-07-17T01:32:59;17.30;99.90
25556;DHT22;13447;57.174;-2.112;2022-07-17T01:35:26;17.30;99.90
25556;DHT22;13447;57.174;-2.112;2022-07-17T01:37:53;17.50;99.90
25556;DHT22;13447;57.174;-2.112;2022-07-17T01:40:20;17.40;99.90
25556;DHT22;13447;57.174;-2.112;2022-07-17T01:42:49;17.30;99.90
25556;DHT22;13447;57.174;-2.112;2022-07-17T07:44:22;15.90;99.90
25556;DHT22;13447;57.174;-2.112;2022-07-17T07:46:57;15.90;99.90
25556;DHT22;13447;57.174;-2.112;2022-07-17T07:49:24;15.80;99.90
25556;DHT22;13447;57.174;-2.112;2022-07-17T07:51:51;15.80;99.90
25556;DHT22;13447;57.174;-2.112;2022-07-17T07:54:34;15.80;99.90
25556;DHT22;13447;57.174;-2.112;2022-07-17T07:57:02;15.70;99.90
25556;DHT22;13447;57.174;-2.112;2022-07-17T07:59:30;15.80;99.90
25556;DHT22;13447;57.174;-2.112;2022-07-17T08:02:01;15.80;99.90
25556;DHT22;13447;57.174;-2.112;2022-07-17T08:04:28;15.90;99.90
25556;DHT22;13447;57.174;-2.112;2022-07-17T08:06:56;16.00;99.90
25556;DHT22;13447;57.174;-2.112;2022-07-17T08:09:23;16.00;99.90
25556;DHT22;13447;57.174;-2.112;2022-07-17T08:11:50;15.90;99.90
25556;DHT22;13447;57.174;-2.112;2022-07-17T08:14:17;16.00;99.90
25556;DHT22;13447;57.174;-2.112;2022-07-17T08:16:45;16.00;99.90
25556;DHT22;13447;57.174;-2.112;2022-07-17T08:19:13;16.00;99.90
25556;DHT22;13447;57.174;-2.112;2022-07-17T08:21:40;16.10;99.90
25556;DHT22;13447;57.174;-2.112;2022-07-17T08:24:07;16.00;99.90
25556;DHT22;13447;57.174;-2.112;2022-07-17T08:26:34;16.10;99.90
25556;DHT22;13447;57.174;-2.112;2022-07-17T08:29:01;16.10;99.90
25556;DHT22;13447;57.174;-2.112;2022-07-17T08:31:28;16.00;99.90
25556;DHT22;13447;57.174;-2.112;2022-07-17T08:33:55;16.00;99.90
25556;DHT22;13447;57.174;-2.112;2022-07-17T08:36:22;16.00;99.90
25556;DHT22;13447;57.174;-2.112;2022-07-17T08:38:49;16.00;99.90
25556;DHT22;13447;57.174;-2.112;2022-07-17T08:41:16;16.10;99.90
25556;DHT22;13447;57.174;-2.112;2022-07-17T08:43:44;16.10;99.90
25556;DHT22;13447;57.174;-2.112;2022-07-17T10:44:02;20.80;99.90
25556;DHT22;13447;57.174;-2.112;2022-07-17T10:46:29;20.70;99.90
25556;DHT22;13447;57.174;-2.112;2022-07-17T10:48:57;20.60;99.90
25556;DHT22;13447;57.174;-2.112;2022-07-17T10:51:24;20.50;99.90
25556;DHT22;13447;57.174;-2.112;2022-07-17T10:53:56;20.50;99.90
25556;DHT22;13447;57.174;-2.112;2022-07-17T10:56:26;20.40;99.90
25556;DHT22;13447;57.174;-2.112;2022-07-17T10:59:00;20.50;99.90
25556;DHT22;13447;57.174;-2.112;2022-07-17T11:01:29;20.30;99.90
25556;DHT22;13447;57.174;-2.112;2022-07-17T11:03:59;20.30;99.90
25556;DHT22;13447;57.174;-2.112;2022-07-17T11:06:33;20.60;99.90
25556;DHT22;13447;57.174;-2.112;2022-07-17T11:29:35;20.40;99.90
25556;DHT22;13447;57.174;-2.112;2022-07-17T11:32:02;20.40;99.90
25556;DHT22;13447;57.174;-2.112;2022-07-17T11:34:29;20.40;99.90
25556;DHT22;13447;57.174;-2.112;2022-07-17T11:37:03;20.60;99.90
25556;DHT22;13447;57.174;-2.112;2022-07-17T11:39:47;20.70;99.90
25556;DHT22;13447;57.174;-2.112;2022-07-17T11:42:22;20.80;99.90
25556;DHT22;13447;57.174;-2.112;2022-07-17T11:44:51;20.90;99.90
25556;DHT22;13447;57.174;-2.112;2022-07-17T11:47:23;21.30;99.90
25556;DHT22;13447;57.174;-2.112;2022-07-17T11:49:51;21.90;99.90
25556;DHT22;13447;57.174;-2.112;2022-07-17T11:52:20;22.80;99.90
25556;DHT22;13447;57.174;-2.112;2022-07-17T11:54:53;23.50;99.90
25556;DHT22;13447;57.174;-2.112;2022-07-17T11:57:26;23.30;99.90
25556;DHT22;13447;57.174;-2.112;2022-07-17T11:59:53;23.30;99.90
25556;DHT22;13447;57.174;-2.112;2022-07-17T12:02:31;23.60;99.90
25556;DHT22;13447;57.174;-2.112;2022-07-17T12:04:59;23.50;99.90
25556;DHT22;13447;57.174;-2.112;2022-07-17T12:07:42;23.60;99.90
25556;DHT22;13447;57.174;-2.112;2022-07-17T12:10:16;23.60;99.90
25556;DHT22;13447;57.174;-2.112;2022-07-17T12:13:00;23.50;99.90
25556;DHT22;13447;57.174;-2.112;2022-07-17T12:15:37;23.10;99.90
25556;DHT22;13447;57.174;-2.112;2022-07-17T12:18:08;23.20;99.90
25556;DHT22;13447;57.174;-2.112;2022-07-17T12:20:47;23.10;99.90
25556;DHT22;13447;57.174;-2.112;2022-07-17T12:23:33;23.10;99.90
25556;DHT22;13447;57.174;-2.112;2022-07-17T12:26:06;23.30;99.90
25556;DHT22;13447;57.174;-2.112;2022-07-17T12:28:34;23.40;99.90
25556;DHT22;13447;57.174;-2.112;2022-07-17T12:31:01;23.30;99.90
25556;DHT22;13447;57.174;-2.112;2022-07-17T12:33:29;23.00;99.90
25556;DHT22;13447;57.174;-2.112;2022-07-17T12:35:56;23.40;99.90
25556;DHT22;13447;57.174;-2.112;2022-07-17T12:38:23;23.60;99.90
25556;DHT22;13447;57.174;-2.112;2022-07-17T12:40:50;23.20;99.90
25556;DHT22;13447;57.174;-2.112;2022-07-17T12:43:18;23.20;99.90
25556;DHT22;13447;57.174;-2.112;2022-07-17T17:45:20;21.00;97.80
25556;DHT22;13447;57.174;-2.112;2022-07-17T17:47:47;21.00;98.30
25556;DHT22;13447;57.174;-2.112;2022-07-17T17:50:14;21.10;98.40
25556;DHT22;13447;57.174;-2.112;2022-07-17T17:52:41;21.00;98.10
25556;DHT22;13447;57.174;-2.112;2022-07-17T17:55:11;20.90;98.00
25556;DHT22;13447;57.174;-2.112;2022-07-17T17:57:39;20.90;98.50
25556;DHT22;13447;57.174;-2.112;2022-07-17T18:00:07;20.80;98.60
25556;DHT22;13447;57.174;-2.112;2022-07-17T18:02:35;20.80;98.50
25556;DHT22;13447;57.174;-2.112;2022-07-17T18:05:02;20.70;98.80
25556;DHT22;13447;57.174;-2.112;2022-07-17T18:07:29;20.70;98.70
25556;DHT22;13447;57.174;-2.112;2022-07-17T18:09:56;20.70;98.90
25556;DHT22;13447;57.174;-2.112;2022-07-17T18:12:23;20.70;99.00
25556;DHT22;13447;57.174;-2.112;2022-07-17T18:14:50;20.80;99.00
25556;DHT22;13447;57.174;-2.112;2022-07-17T18:17:17;20.80;98.90
25556;DHT22;13447;57.174;-2.112;2022-07-17T18:19:44;20.70;99.20
25556;DHT22;13447;57.174;-2.112;2022-07-17T18:22:11;20.80;99.10
25556;DHT22;13447;57.174;-2.112;2022-07-17T18:24:38;20.80;98.90
25556;DHT22;13447;57.174;-2.112;2022-07-17T18:27:05;20.80;98.80
25556;DHT22;13447;57.174;-2.112;2022-07-17T18:29:32;20.80;98.60
25556;DHT22;13447;57.174;-2.112;2022-07-17T18:32:06;20.90;98.50
25556;DHT22;13447;57.174;-2.112;2022-07-17T18:34:33;20.90;98.40
25556;DHT22;13447;57.174;-2.112;2022-07-17T18:37:00;20.80;98.60
25556;DHT22;13447;57.174;-2.112;2022-07-17T18:39:27;20.50;99.10
25556;DHT22;13447;57.174;-2.112;2022-07-17T18:41:54;20.40;99.20
25556;DHT22;13447;57.174;-2.112;2022-07-17T18:44:22;20.30;99.60
